sensor_id;sensor_type;location;lat;lon;timestamp;pressure;altitude;pressure_sealevel;temperature;humidity
36798;BME280;22748;8.426;99.512;2023-05-11T00:00:12;100714.41;;;30.39;62.26
36798;BME280;22748;8.426;99.512;2023-05-11T00:02:41;100722.28;;;30.40;62.26
36798;BME280;22748;8.426;99.512;2023-05-11T00:05:11;100723.13;;;30.41;62.25
36798;BME280;22748;8.426;99.512;2023-05-11T00:07:40;100724.38;;;30.38;62.25
36798;BME280;22748;8.426;99.512;2023-05-11T00:10:09;100720.63;;;30.39;62.42
36798;BME280;22748;8.426;99.512;2023-05-11T00:12:41;100737.63;;;30.40;62.09
36798;BME280;22748;8.426;99.512;2023-05-11T00:15:10;100738.47;;;30.40;62.45
36798;BME280;22748;8.426;99.512;2023-05-11T00:17:39;100745.50;;;30.41;62.33
36798;BME280;22748;8.426;99.512;2023-05-11T00:20:10;100754.19;;;30.43;62.29
36798;BME280;22748;8.426;99.512;2023-05-11T00:22:39;100755.25;;;30.42;62.02
36798;BME280;22748;8.426;99.512;2023-05-11T00:25:08;100753.78;;;30.40;62.09
36798;BME280;22748;8.426;99.512;2023-05-11T00:27:43;100753.44;;;30.23;62.24
36798;BME280;22748;8.426;99.512;2023-05-11T00:33:17;100775.00;;;30.23;62.86
36798;BME280;22748;8.426;99.512;2023-05-11T00:35:47;100776.19;;;30.27;62.60
36798;BME280;22748;8.426;99.512;2023-05-11T00:38:18;100774.16;;;30.29;62.50
36798;BME280;22748;8.426;99.512;2023-05-11T00:40:48;100790.72;;;30.32;62.84
36798;BME280;22748;8.426;99.512;2023-05-11T00:43:19;100792.75;;;30.37;62.49
36798;BME280;22748;8.426;99.512;2023-05-11T00:45:48;100792.34;;;30.40;62.57
36798;BME280;22748;8.426;99.512;2023-05-11T00:48:19;100796.06;;;30.39;62.57
36798;BME280;22748;8.426;99.512;2023-05-11T00:50:49;100800.44;;;30.40;62.92
36798;BME280;22748;8.426;99.512;2023-05-11T00:53:19;100802.91;;;30.42;62.77
36798;BME280;22748;8.426;99.512;2023-05-11T00:55:49;100803.94;;;30.41;62.43
36798;BME280;22748;8.426;99.512;2023-05-11T00:58:20;100808.09;;;30.43;62.49
36798;BME280;22748;8.426;99.512;2023-05-11T01:00:49;100811.19;;;30.47;63.09
36798;BME280;22748;8.426;99.512;2023-05-11T01:03:19;100808.03;;;30.50;62.90
36798;BME280;22748;8.426;99.512;2023-05-11T01:05:51;100811.78;;;30.49;62.73
36798;BME280;22748;8.426;99.512;2023-05-11T01:08:23;100813.22;;;30.51;62.79
36798;BME280;22748;8.426;99.512;2023-05-11T01:10:53;100810.28;;;30.53;62.91
36798;BME280;22748;8.426;99.512;2023-05-11T01:13:29;100810.28;;;30.53;63.23
36798;BME280;22748;8.426;99.512;2023-05-11T01:16:01;100817.34;;;30.54;63.18
36798;BME280;22748;8.426;99.512;2023-05-11T01:18:38;100830.00;;;30.53;63.01
36798;BME280;22748;8.426;99.512;2023-05-11T01:21:10;100824.38;;;30.55;62.65
36798;BME280;22748;8.426;99.512;2023-05-11T01:26:36;100832.84;;;30.65;62.83
36798;BME280;22748;8.426;99.512;2023-05-11T01:29:18;100830.91;;;30.72;62.34
36798;BME280;22748;8.426;99.512;2023-05-11T01:31:53;100831.13;;;30.78;61.90
36798;BME280;22748;8.426;99.512;2023-05-11T01:34:25;100834.84;;;30.76;61.74
36798;BME280;22748;8.426;99.512;2023-05-11T01:36:57;100831.84;;;30.60;61.38
36798;BME280;22748;8.426;99.512;2023-05-11T01:39:28;100830.38;;;30.57;61.41
36798;BME280;22748;8.426;99.512;2023-05-11T01:42:00;100836.78;;;30.63;61.65
36798;BME280;22748;8.426;99.512;2023-05-11T01:44:33;100839.03;;;30.66;61.55
36798;BME280;22748;8.426;99.512;2023-05-11T01:47:05;100835.31;;;30.67;61.73
36798;BME280;22748;8.426;99.512;2023-05-11T01:49:36;100834.06;;;30.69;61.25
36798;BME280;22748;8.426;99.512;2023-05-11T01:52:05;100844.81;;;30.76;61.89
36798;BME280;22748;8.426;99.512;2023-05-11T01:54:39;100838.97;;;30.79;61.57
36798;BME280;22748;8.426;99.512;2023-05-11T01:57:09;100838.53;;;30.82;61.76
36798;BME280;22748;8.426;99.512;2023-05-11T01:59:41;100838.75;;;30.87;61.93
36798;BME280;22748;8.426;99.512;2023-05-11T02:02:13;100839.75;;;30.93;61.67
36798;BME280;22748;8.426;99.512;2023-05-11T02:04:43;100838.50;;;30.95;61.68
36798;BME280;22748;8.426;99.512;2023-05-11T02:07:13;100831.47;;;30.94;61.78
36798;BME280;22748;8.426;99.512;2023-05-11T02:09:45;100832.69;;;30.92;62.04
36798;BME280;22748;8.426;99.512;2023-05-11T02:12:16;100837.25;;;30.91;62.25
36798;BME280;22748;8.426;99.512;2023-05-11T02:14:47;100836.84;;;30.94;62.38
36798;BME280;22748;8.426;99.512;2023-05-11T02:17:21;100835.59;;;30.97;62.08
36798;BME280;22748;8.426;99.512;2023-05-11T02:19:54;100830.41;;;30.95;62.61
36798;BME280;22748;8.426;99.512;2023-05-11T02:22:25;100823.63;;;30.86;62.13
36798;BME280;22748;8.426;99.512;2023-05-11T02:24:54;100826.63;;;30.96;62.34
36798;BME280;22748;8.426;99.512;2023-05-11T02:27:24;100828.47;;;31.03;61.42
36798;BME280;22748;8.426;99.512;2023-05-11T02:29:53;100821.38;;;31.08;60.82
36798;BME280;22748;8.426;99.512;2023-05-11T02:32:26;100825.06;;;31.14;60.88
36798;BME280;22748;8.426;99.512;2023-05-11T02:34:58;100826.28;;;31.18;60.95
36798;BME280;22748;8.426;99.512;2023-05-11T02:37:28;100821.66;;;31.25;60.00
36798;BME280;22748;8.426;99.512;2023-05-11T02:40:01;100817.69;;;31.28;59.60
36798;BME280;22748;8.426;99.512;2023-05-11T02:42:35;100818.47;;;31.35;59.53
36798;BME280;22748;8.426;99.512;2023-05-11T02:45:06;100825.06;;;31.39;58.94
36798;BME280;22748;8.426;99.512;2023-05-11T02:47:40;100816.53;;;31.42;58.84
36798;BME280;22748;8.426;99.512;2023-05-11T02:50:12;100817.75;;;31.46;58.34
36798;BME280;22748;8.426;99.512;2023-05-11T02:52:43;100812.75;;;31.50;58.44
36798;BME280;22748;8.426;99.512;2023-05-11T02:55:15;100818.75;;;31.52;58.71
36798;BME280;22748;8.426;99.512;2023-05-11T02:57:45;100814.56;;;31.56;58.38
36798;BME280;22748;8.426;99.512;2023-05-11T03:00:14;100814.72;;;31.61;58.54
36798;BME280;22748;8.426;99.512;2023-05-11T03:02:46;100819.69;;;31.64;58.97
36798;BME280;22748;8.426;99.512;2023-05-11T03:05:16;100815.91;;;31.65;58.48
36798;BME280;22748;8.426;99.512;2023-05-11T03:07:58;100806.00;;;31.59;57.61
36798;BME280;22748;8.426;99.512;2023-05-11T03:10:28;100806.63;;;31.61;58.05
36798;BME280;22748;8.426;99.512;2023-05-11T03:13:00;100808.44;;;31.67;57.77
36798;BME280;22748;8.426;99.512;2023-05-11T03:15:30;100804.84;;;31.73;57.12
36798;BME280;22748;8.426;99.512;2023-05-11T03:18:03;100802.66;;;31.82;57.21
36798;BME280;22748;8.426;99.512;2023-05-11T03:20:34;100797.41;;;31.87;57.40
36798;BME280;22748;8.426;99.512;2023-05-11T03:23:04;100796.56;;;31.87;57.20
36798;BME280;22748;8.426;99.512;2023-05-11T03:25:34;100792.81;;;31.88;57.29
36798;BME280;22748;8.426;99.512;2023-05-11T03:28:05;100781.13;;;31.94;57.43
36798;BME280;22748;8.426;99.512;2023-05-11T03:30:36;100760.31;;;32.01;57.14
36798;BME280;22748;8.426;99.512;2023-05-11T03:33:09;100766.44;;;32.08;55.98
36798;BME280;22748;8.426;99.512;2023-05-11T03:35:38;100760.56;;;32.11;56.56
36798;BME280;22748;8.426;99.512;2023-05-11T03:38:10;100761.31;;;32.18;56.74
36798;BME280;22748;8.426;99.512;2023-05-11T03:40:40;100760.03;;;32.21;55.87
36798;BME280;22748;8.426;99.512;2023-05-11T03:43:10;100751.25;;;32.26;55.40
36798;BME280;22748;8.426;99.512;2023-05-11T03:45:47;100759.69;;;32.29;54.58
36798;BME280;22748;8.426;99.512;2023-05-11T03:48:26;100754.34;;;32.41;53.87
36798;BME280;22748;8.426;99.512;2023-05-11T03:50:58;100752.56;;;32.47;54.39
36798;BME280;22748;8.426;99.512;2023-05-11T03:53:27;100747.28;;;32.40;52.14
36798;BME280;22748;8.426;99.512;2023-05-11T03:55:59;100747.13;;;32.53;53.00
36798;BME280;22748;8.426;99.512;2023-05-11T03:58:30;100749.47;;;32.62;52.61
36798;BME280;22748;8.426;99.512;2023-05-11T04:01:00;100745.75;;;32.63;53.21
36798;BME280;22748;8.426;99.512;2023-05-11T04:03:32;100749.47;;;32.62;53.48
36798;BME280;22748;8.426;99.512;2023-05-11T04:06:02;100751.00;;;32.57;53.36
36798;BME280;22748;8.426;99.512;2023-05-11T04:08:32;100743.97;;;32.56;52.64
36798;BME280;22748;8.426;99.512;2023-05-11T04:11:02;100741.25;;;32.56;52.71
36798;BME280;22748;8.426;99.512;2023-05-11T04:13:32;100737.47;;;32.57;52.54
36798;BME280;22748;8.426;99.512;2023-05-11T04:16:02;100729.75;;;32.61;52.76
36798;BME280;22748;8.426;99.512;2023-05-11T04:18:33;100739.25;;;32.64;52.45
36798;BME280;22748;8.426;99.512;2023-05-11T04:21:03;100734.00;;;32.69;52.13
36798;BME280;22748;8.426;99.512;2023-05-11T04:23:32;100726.00;;;32.74;52.29
36798;BME280;22748;8.426;99.512;2023-05-11T04:26:04;100721.28;;;32.81;50.83
36798;BME280;22748;8.426;99.512;2023-05-11T04:28:35;100720.47;;;32.92;50.84
36798;BME280;22748;8.426;99.512;2023-05-11T04:31:05;100712.38;;;32.92;50.97
36798;BME280;22748;8.426;99.512;2023-05-11T04:33:37;100711.78;;;32.90;50.95
36798;BME280;22748;8.426;99.512;2023-05-11T04:36:06;100709.06;;;32.90;50.22
36798;BME280;22748;8.426;99.512;2023-05-11T04:38:37;100691.44;;;32.99;50.27
36798;BME280;22748;8.426;99.512;2023-05-11T04:41:07;100702.50;;;33.10;50.23
36798;BME280;22748;8.426;99.512;2023-05-11T04:43:37;100703.69;;;33.14;49.83
36798;BME280;22748;8.426;99.512;2023-05-11T04:46:07;100696.88;;;33.23;48.42
36798;BME280;22748;8.426;99.512;2023-05-11T04:48:38;100701.09;;;33.31;48.46
36798;BME280;22748;8.426;99.512;2023-05-11T04:51:08;100692.16;;;33.30;48.17
36798;BME280;22748;8.426;99.512;2023-05-11T04:53:37;100692.97;;;33.31;48.51
36798;BME280;22748;8.426;99.512;2023-05-11T04:56:07;100683.81;;;33.32;46.59
36798;BME280;22748;8.426;99.512;2023-05-11T04:58:37;100688.00;;;33.39;47.21
36798;BME280;22748;8.426;99.512;2023-05-11T05:01:08;100677.78;;;33.42;46.38
36798;BME280;22748;8.426;99.512;2023-05-11T05:03:39;100681.66;;;33.46;46.83
36798;BME280;22748;8.426;99.512;2023-05-11T05:06:09;100674.84;;;33.43;47.03
36798;BME280;22748;8.426;99.512;2023-05-11T05:08:40;100669.56;;;33.36;46.99
36798;BME280;22748;8.426;99.512;2023-05-11T05:11:09;100661.56;;;33.30;46.83
36798;BME280;22748;8.426;99.512;2023-05-11T05:13:38;100659.44;;;33.20;47.12
36798;BME280;22748;8.426;99.512;2023-05-11T05:16:07;100658.75;;;33.13;46.99
36798;BME280;22748;8.426;99.512;2023-05-11T05:18:39;100649.69;;;33.19;46.93
36798;BME280;22748;8.426;99.512;2023-05-11T05:21:08;100646.03;;;33.25;47.00
36798;BME280;22748;8.426;99.512;2023-05-11T05:23:38;100640.16;;;33.28;46.02
36798;BME280;22748;8.426;99.512;2023-05-11T05:26:08;100631.66;;;33.36;45.76
36798;BME280;22748;8.426;99.512;2023-05-11T05:28:38;100629.03;;;33.42;44.84
36798;BME280;22748;8.426;99.512;2023-05-11T05:31:07;100617.72;;;33.45;45.08
36798;BME280;22748;8.426;99.512;2023-05-11T05:33:38;100613.91;;;33.57;45.20
36798;BME280;22748;8.426;99.512;2023-05-11T05:36:08;100609.81;;;33.67;45.04
36798;BME280;22748;8.426;99.512;2023-05-11T05:38:38;100603.66;;;33.71;45.08
36798;BME280;22748;8.426;99.512;2023-05-11T05:41:09;100601.09;;;33.65;45.46
36798;BME280;22748;8.426;99.512;2023-05-11T05:43:40;100596.84;;;33.57;45.97
36798;BME280;22748;8.426;99.512;2023-05-11T05:46:10;100588.03;;;33.62;45.01
36798;BME280;22748;8.426;99.512;2023-05-11T05:48:42;100584.50;;;33.61;45.07
36798;BME280;22748;8.426;99.512;2023-05-11T05:51:12;100588.72;;;33.57;45.02
36798;BME280;22748;8.426;99.512;2023-05-11T05:53:42;100581.88;;;33.66;44.31
36798;BME280;22748;8.426;99.512;2023-05-11T05:56:12;100577.47;;;33.77;43.79
36798;BME280;22748;8.426;99.512;2023-05-11T05:58:41;100570.50;;;33.81;44.39
36798;BME280;22748;8.426;99.512;2023-05-11T06:01:11;100565.00;;;33.76;44.69
36798;BME280;22748;8.426;99.512;2023-05-11T06:03:43;100569.13;;;33.78;44.45
36798;BME280;22748;8.426;99.512;2023-05-11T06:06:12;100562.16;;;33.83;44.80
36798;BME280;22748;8.426;99.512;2023-05-11T06:08:44;100557.31;;;33.85;44.38
36798;BME280;22748;8.426;99.512;2023-05-11T06:11:14;100555.19;;;33.87;44.63
36798;BME280;22748;8.426;99.512;2023-05-11T06:13:44;100557.38;;;33.90;43.85
36798;BME280;22748;8.426;99.512;2023-05-11T06:16:14;100543.09;;;33.94;43.09
36798;BME280;22748;8.426;99.512;2023-05-11T06:18:46;100541.88;;;34.02;42.80
36798;BME280;22748;8.426;99.512;2023-05-11T06:21:16;100539.25;;;34.07;42.58
36798;BME280;22748;8.426;99.512;2023-05-11T06:23:45;100526.78;;;34.06;43.04
36798;BME280;22748;8.426;99.512;2023-05-11T06:26:15;100530.22;;;34.01;42.64
36798;BME280;22748;8.426;99.512;2023-05-11T06:28:46;100527.81;;;34.05;42.14
36798;BME280;22748;8.426;99.512;2023-05-11T06:31:15;100515.44;;;34.09;42.02
36798;BME280;22748;8.426;99.512;2023-05-11T06:33:48;100519.09;;;34.15;42.30
36798;BME280;22748;8.426;99.512;2023-05-11T06:36:17;100516.09;;;34.16;41.66
36798;BME280;22748;8.426;99.512;2023-05-11T06:38:47;100510.84;;;34.27;40.86
36798;BME280;22748;8.426;99.512;2023-05-11T06:41:16;100516.78;;;34.24;40.90
36798;BME280;22748;8.426;99.512;2023-05-11T06:43:44;100506.41;;;34.20;41.03
36798;BME280;22748;8.426;99.512;2023-05-11T06:46:25;100506.34;;;34.15;41.21
36798;BME280;22748;8.426;99.512;2023-05-11T06:48:56;100501.50;;;34.17;41.20
36798;BME280;22748;8.426;99.512;2023-05-11T06:51:26;100489.50;;;34.13;41.15
36798;BME280;22748;8.426;99.512;2023-05-11T06:53:56;100488.44;;;34.14;41.28
36798;BME280;22748;8.426;99.512;2023-05-11T06:56:25;100486.09;;;34.23;39.82
36798;BME280;22748;8.426;99.512;2023-05-11T06:58:59;100478.66;;;34.30;40.52
36798;BME280;22748;8.426;99.512;2023-05-11T07:01:27;100482.22;;;34.36;40.75
36798;BME280;22748;8.426;99.512;2023-05-11T07:03:59;100479.91;;;34.45;40.73
36798;BME280;22748;8.426;99.512;2023-05-11T07:06:29;100472.16;;;34.53;40.50
36798;BME280;22748;8.426;99.512;2023-05-11T07:08:58;100471.91;;;34.55;40.77
36798;BME280;22748;8.426;99.512;2023-05-11T07:11:30;100459.94;;;34.51;41.13
36798;BME280;22748;8.426;99.512;2023-05-11T07:13:58;100470.00;;;34.55;40.82
36798;BME280;22748;8.426;99.512;2023-05-11T07:16:27;100460.50;;;34.53;41.10
36798;BME280;22748;8.426;99.512;2023-05-11T07:19:00;100444.56;;;34.56;40.88
36798;BME280;22748;8.426;99.512;2023-05-11T07:21:29;100450.78;;;34.57;40.80
36798;BME280;22748;8.426;99.512;2023-05-11T07:23:57;100441.56;;;34.58;40.87
36798;BME280;22748;8.426;99.512;2023-05-11T07:26:28;100446.03;;;34.47;41.04
36798;BME280;22748;8.426;99.512;2023-05-11T07:28:57;100441.72;;;34.46;41.07
36798;BME280;22748;8.426;99.512;2023-05-11T07:31:26;100433.56;;;34.46;41.05
36798;BME280;22748;8.426;99.512;2023-05-11T07:33:56;100426.75;;;34.44;40.94
36798;BME280;22748;8.426;99.512;2023-05-11T07:36:27;100428.66;;;34.43;40.93
36798;BME280;22748;8.426;99.512;2023-05-11T07:38:57;100422.41;;;34.42;40.75
36798;BME280;22748;8.426;99.512;2023-05-11T07:41:27;100428.78;;;34.53;40.33
36798;BME280;22748;8.426;99.512;2023-05-11T07:43:58;100408.38;;;34.68;39.74
36798;BME280;22748;8.426;99.512;2023-05-11T07:46:28;100408.69;;;34.71;40.02
36798;BME280;22748;8.426;99.512;2023-05-11T07:48:58;100406.72;;;34.67;40.03
36798;BME280;22748;8.426;99.512;2023-05-11T07:51:29;100405.09;;;34.66;40.00
36798;BME280;22748;8.426;99.512;2023-05-11T07:53:58;100395.38;;;34.70;39.59
36798;BME280;22748;8.426;99.512;2023-05-11T07:56:27;100397.31;;;34.74;39.66
36798;BME280;22748;8.426;99.512;2023-05-11T07:58:57;100391.91;;;34.74;39.91
36798;BME280;22748;8.426;99.512;2023-05-11T08:01:27;100382.88;;;34.69;39.81
36798;BME280;22748;8.426;99.512;2023-05-11T08:03:56;100390.97;;;34.64;39.91
36798;BME280;22748;8.426;99.512;2023-05-11T08:06:25;100384.56;;;34.75;39.39
36798;BME280;22748;8.426;99.512;2023-05-11T08:08:58;100383.56;;;34.81;39.59
36798;BME280;22748;8.426;99.512;2023-05-11T08:11:29;100381.16;;;34.85;39.52
36798;BME280;22748;8.426;99.512;2023-05-11T08:13:58;100381.97;;;34.85;40.00
36798;BME280;22748;8.426;99.512;2023-05-11T08:16:28;100378.16;;;34.86;39.97
36798;BME280;22748;8.426;99.512;2023-05-11T08:19:02;100371.13;;;34.85;39.66
36798;BME280;22748;8.426;99.512;2023-05-11T08:21:32;100370.91;;;34.92;39.72
36798;BME280;22748;8.426;99.512;2023-05-11T08:24:04;100371.78;;;34.97;39.89
36798;BME280;22748;8.426;99.512;2023-05-11T08:26:32;100367.44;;;34.96;40.20
36798;BME280;22748;8.426;99.512;2023-05-11T08:29:02;100371.31;;;35.06;39.98
36798;BME280;22748;8.426;99.512;2023-05-11T08:31:31;100371.97;;;35.13;40.12
36798;BME280;22748;8.426;99.512;2023-05-11T08:34:01;100367.63;;;35.17;40.04
36798;BME280;22748;8.426;99.512;2023-05-11T08:36:30;100365.47;;;35.19;39.92
36798;BME280;22748;8.426;99.512;2023-05-11T08:39:00;100361.69;;;35.20;39.89
36798;BME280;22748;8.426;99.512;2023-05-11T08:41:33;100364.75;;;35.29;39.59
36798;BME280;22748;8.426;99.512;2023-05-11T08:44:03;100362.63;;;35.36;39.24
36798;BME280;22748;8.426;99.512;2023-05-11T08:46:33;100364.00;;;35.38;39.37
36798;BME280;22748;8.426;99.512;2023-05-11T08:49:03;100358.84;;;35.37;39.64
36798;BME280;22748;8.426;99.512;2023-05-11T08:51:34;100353.13;;;35.33;39.72
36798;BME280;22748;8.426;99.512;2023-05-11T08:54:03;100355.28;;;35.31;39.80
36798;BME280;22748;8.426;99.512;2023-05-11T08:56:35;100354.22;;;35.32;39.83
36798;BME280;22748;8.426;99.512;2023-05-11T08:59:05;100352.88;;;35.35;39.69
36798;BME280;22748;8.426;99.512;2023-05-11T09:01:35;100351.28;;;35.39;39.61
36798;BME280;22748;8.426;99.512;2023-05-11T09:04:06;100351.28;;;35.44;39.61
36798;BME280;22748;8.426;99.512;2023-05-11T09:06:35;100352.41;;;35.48;39.15
36798;BME280;22748;8.426;99.512;2023-05-11T09:09:11;100353.81;;;35.56;38.90
36798;BME280;22748;8.426;99.512;2023-05-11T09:14:31;100346.75;;;35.55;39.05
36798;BME280;22748;8.426;99.512;2023-05-11T09:17:06;100349.22;;;35.56;39.58
36798;BME280;22748;8.426;99.512;2023-05-11T09:19:35;100348.38;;;35.56;38.87
36798;BME280;22748;8.426;99.512;2023-05-11T09:22:05;100348.94;;;35.58;39.18
36798;BME280;22748;8.426;99.512;2023-05-11T09:24:34;100344.06;;;35.60;38.82
36798;BME280;22748;8.426;99.512;2023-05-11T09:27:09;100342.72;;;35.62;38.87
36798;BME280;22748;8.426;99.512;2023-05-11T09:29:40;100345.22;;;35.64;38.68
36798;BME280;22748;8.426;99.512;2023-05-11T09:32:09;100338.19;;;35.68;38.76
36798;BME280;22748;8.426;99.512;2023-05-11T09:34:40;100333.03;;;35.72;38.91
36798;BME280;22748;8.426;99.512;2023-05-11T09:37:15;100332.25;;;35.76;38.73
36798;BME280;22748;8.426;99.512;2023-05-11T09:39:48;100344.75;;;35.77;39.20
36798;BME280;22748;8.426;99.512;2023-05-11T09:42:23;100338.25;;;35.78;39.32
36798;BME280;22748;8.426;99.512;2023-05-11T09:44:54;100336.59;;;35.77;39.09
36798;BME280;22748;8.426;99.512;2023-05-11T09:47:25;100339.06;;;35.79;38.93
36798;BME280;22748;8.426;99.512;2023-05-11T09:49:55;100337.16;;;35.79;39.14
36798;BME280;22748;8.426;99.512;2023-05-11T09:52:24;100338.81;;;35.80;38.96
36798;BME280;22748;8.426;99.512;2023-05-11T09:54:56;100333.94;;;35.82;38.93
36798;BME280;22748;8.426;99.512;2023-05-11T09:57:27;100326.31;;;35.84;39.16
36798;BME280;22748;8.426;99.512;2023-05-11T09:59:58;100322.50;;;35.86;39.15
36798;BME280;22748;8.426;99.512;2023-05-11T10:02:28;100331.22;;;35.88;38.85
36798;BME280;22748;8.426;99.512;2023-05-11T10:04:58;100336.97;;;35.91;38.83
36798;BME280;22748;8.426;99.512;2023-05-11T10:07:27;100337.22;;;35.90;39.23
36798;BME280;22748;8.426;99.512;2023-05-11T10:09:58;100334.47;;;35.84;39.25
36798;BME280;22748;8.426;99.512;2023-05-11T10:12:28;100339.91;;;35.84;39.48
36798;BME280;22748;8.426;99.512;2023-05-11T10:15:04;100336.09;;;35.86;39.52
36798;BME280;22748;8.426;99.512;2023-05-11T10:17:34;100329.56;;;35.87;39.06
36798;BME280;22748;8.426;99.512;2023-05-11T10:20:04;100327.94;;;35.86;39.47
36798;BME280;22748;8.426;99.512;2023-05-11T10:22:35;100328.50;;;35.88;39.65
36798;BME280;22748;8.426;99.512;2023-05-11T10:25:05;100331.22;;;35.88;39.64
36798;BME280;22748;8.426;99.512;2023-05-11T10:27:35;100329.31;;;35.88;39.63
36798;BME280;22748;8.426;99.512;2023-05-11T10:30:08;100335.56;;;35.89;39.82
36798;BME280;22748;8.426;99.512;2023-05-11T10:32:38;100328.50;;;35.88;40.03
36798;BME280;22748;8.426;99.512;2023-05-11T10:35:10;100331.22;;;35.88;40.10
36798;BME280;22748;8.426;99.512;2023-05-11T10:37:39;100328.25;;;35.89;40.04
36798;BME280;22748;8.426;99.512;2023-05-11T10:40:21;100331.22;;;35.82;40.29
36798;BME280;22748;8.426;99.512;2023-05-11T10:43:02;100325.16;;;35.70;40.59
36798;BME280;22748;8.426;99.512;2023-05-11T10:45:42;100323.47;;;35.64;41.02
36798;BME280;22748;8.426;99.512;2023-05-11T10:56:35;100310.88;;;35.48;42.44
36798;BME280;22748;8.426;99.512;2023-05-11T10:59:15;100320.88;;;35.42;42.62
36798;BME280;22748;8.426;99.512;2023-05-11T11:01:50;100317.06;;;35.43;42.96
36798;BME280;22748;8.426;99.512;2023-05-11T11:04:23;100313.81;;;35.41;43.21
36798;BME280;22748;8.426;99.512;2023-05-11T11:07:03;100323.84;;;35.40;43.59
36798;BME280;22748;8.426;99.512;2023-05-11T11:12:16;100327.09;;;35.37;43.96
36798;BME280;22748;8.426;99.512;2023-05-11T11:15:00;100328.44;;;35.35;44.22
36798;BME280;22748;8.426;99.512;2023-05-11T11:17:32;100332.75;;;35.31;44.67
36798;BME280;22748;8.426;99.512;2023-05-11T11:20:04;100332.19;;;35.29;45.09
36798;BME280;22748;8.426;99.512;2023-05-11T11:22:49;100337.59;;;35.29;44.83
36798;BME280;22748;8.426;99.512;2023-05-11T11:28:01;100342.22;;;35.28;45.20
36798;BME280;22748;8.426;99.512;2023-05-11T11:30:30;100344.16;;;35.33;45.48
36798;BME280;22748;8.426;99.512;2023-05-11T11:35:48;100352.09;;;35.44;45.64
36798;BME280;22748;8.426;99.512;2023-05-11T11:38:18;100352.66;;;35.47;45.72
36798;BME280;22748;8.426;99.512;2023-05-11T11:40:51;100357.84;;;35.48;45.67
36798;BME280;22748;8.426;99.512;2023-05-11T11:43:21;100361.38;;;35.49;45.74
36798;BME280;22748;8.426;99.512;2023-05-11T11:45:52;100362.47;;;35.48;45.76
36798;BME280;22748;8.426;99.512;2023-05-11T11:48:23;100368.97;;;35.47;46.10
36798;BME280;22748;8.426;99.512;2023-05-11T11:51:04;100362.97;;;35.44;46.30
36798;BME280;22748;8.426;99.512;2023-05-11T11:56:47;100376.28;;;35.41;46.66
36798;BME280;22748;8.426;99.512;2023-05-11T11:59:17;100380.31;;;35.38;47.13
36798;BME280;22748;8.426;99.512;2023-05-11T12:01:50;100380.25;;;35.33;47.26
36798;BME280;22748;8.426;99.512;2023-05-11T12:04:37;100388.94;;;35.30;47.36
36798;BME280;22748;8.426;99.512;2023-05-11T12:07:09;100384.00;;;35.27;47.37
36798;BME280;22748;8.426;99.512;2023-05-11T12:09:41;100389.41;;;35.22;47.43
36798;BME280;22748;8.426;99.512;2023-05-11T12:12:12;100393.47;;;35.19;47.76
36798;BME280;22748;8.426;99.512;2023-05-11T12:14:45;100401.28;;;35.16;47.57
36798;BME280;22748;8.426;99.512;2023-05-11T12:17:22;100408.28;;;35.12;47.90
36798;BME280;22748;8.426;99.512;2023-05-11T12:19:54;100407.97;;;35.08;47.82
36798;BME280;22748;8.426;99.512;2023-05-11T12:22:25;100418.81;;;35.08;48.03
36798;BME280;22748;8.426;99.512;2023-05-11T12:24:55;100418.56;;;35.10;48.01
36798;BME280;22748;8.426;99.512;2023-05-11T12:27:25;100424.56;;;35.12;47.96
36798;BME280;22748;8.426;99.512;2023-05-11T12:29:54;100430.00;;;35.12;48.18
36798;BME280;22748;8.426;99.512;2023-05-11T12:32:27;100432.94;;;35.10;48.19
36798;BME280;22748;8.426;99.512;2023-05-11T12:35:00;100433.47;;;35.07;48.57
36798;BME280;22748;8.426;99.512;2023-05-11T12:37:32;100427.16;;;35.01;48.69
36798;BME280;22748;8.426;99.512;2023-05-11T12:40:05;100432.03;;;34.99;48.76
36798;BME280;22748;8.426;99.512;2023-05-11T12:42:38;100430.16;;;35.00;49.12
36798;BME280;22748;8.426;99.512;2023-05-11T12:45:14;100433.69;;;35.00;48.92
36798;BME280;22748;8.426;99.512;2023-05-11T12:47:44;100439.69;;;35.02;49.07
36798;BME280;22748;8.426;99.512;2023-05-11T12:50:14;100444.53;;;35.00;49.14
36798;BME280;22748;8.426;99.512;2023-05-11T12:52:45;100455.06;;;34.97;49.06
36798;BME280;22748;8.426;99.512;2023-05-11T12:55:25;100451.44;;;34.86;49.44
36798;BME280;22748;8.426;99.512;2023-05-11T12:58:06;100460.09;;;34.83;49.52
36798;BME280;22748;8.426;99.512;2023-05-11T13:00:36;100458.94;;;34.79;49.44
36798;BME280;22748;8.426;99.512;2023-05-11T13:03:20;100469.47;;;34.75;49.57
36798;BME280;22748;8.426;99.512;2023-05-11T13:05:50;100468.66;;;34.75;49.67
36798;BME280;22748;8.426;99.512;2023-05-11T13:08:22;100474.09;;;34.75;49.56
36798;BME280;22748;8.426;99.512;2023-05-11T13:10:52;100483.88;;;34.76;49.63
36798;BME280;22748;8.426;99.512;2023-05-11T13:13:37;100481.16;;;34.76;49.71
36798;BME280;22748;8.426;99.512;2023-05-11T13:16:07;100483.31;;;34.74;49.77
36798;BME280;22748;8.426;99.512;2023-05-11T13:18:37;100489.56;;;34.74;49.89
36798;BME280;22748;8.426;99.512;2023-05-11T13:21:06;100497.13;;;34.72;49.89
36798;BME280;22748;8.426;99.512;2023-05-11T13:23:37;100504.44;;;34.72;50.11
36798;BME280;22748;8.426;99.512;2023-05-11T13:26:06;100503.63;;;34.71;50.17
36798;BME280;22748;8.426;99.512;2023-05-11T13:28:36;100511.78;;;34.71;50.20
36798;BME280;22748;8.426;99.512;2023-05-11T13:31:05;100526.16;;;34.72;50.30
36798;BME280;22748;8.426;99.512;2023-05-11T13:33:35;100528.84;;;34.72;50.27
36798;BME280;22748;8.426;99.512;2023-05-11T13:36:04;100537.47;;;34.69;50.48
36798;BME280;22748;8.426;99.512;2023-05-11T13:38:34;100534.78;;;34.69;50.49